ローマ/フィウミチーノ の空港の天気 - METARとTAF

ローマ・レオナルド・ダ・ビンチ国際空港 ( LIRF / FCO ) - イタリア ローマ
飛行場実況気象(Metar)
観測時間11/17 01:50 CET (11/17 00:50 UTC)
風向・風速北北東 5m/s
視程10km以上
天気現象
なし
気温8℃
湿度61%
気圧1020hPa
METARLIRF 170050Z 02009KT CAVOK 08/01 Q1020 NOSIG
過去の天気等 Google飛行場航空写真 Wunderground天気予報

過去48時間のMETAR

飛行場予報(TAF)
発表時間: 11/17 00:00 CET (11/16 23:00 UTC)
予報対象時間: 17日1時 CET ~ 18日7時 CET
風向・風速北東 6m/s
視程10km以上
少しの雲 雲底高度 1220m
TAF LIRF 162300Z 1700/1806 04012KT 9999 FEW040